sensor_id;sensor_type;location;lat;lon;timestamp;pressure;altitude;pressure_sealevel;temperature;humidity
74637;BME280;63141;54.616;39.754;2022-10-04T00:01:47;99445.25;;;26.50;39.76
74637;BME280;63141;54.616;39.754;2022-10-04T00:04:56;99447.91;;;26.50;39.46
74637;BME280;63141;54.616;39.754;2022-10-04T00:08:29;99448.81;;;26.50;39.84
74637;BME280;63141;54.616;39.754;2022-10-04T00:11:37;99443.56;;;26.49;39.55
74637;BME280;63141;54.616;39.754;2022-10-04T00:14:43;99432.03;;;26.48;39.66
74637;BME280;63141;54.616;39.754;2022-10-04T00:17:59;99449.84;;;26.48;39.59
74637;BME280;63141;54.616;39.754;2022-10-04T00:21:03;99446.31;;;26.47;39.75
74637;BME280;63141;54.616;39.754;2022-10-04T00:24:09;99449.84;;;26.48;39.80
74637;BME280;63141;54.616;39.754;2022-10-04T00:27:23;99455.19;;;26.48;39.75
74637;BME280;63141;54.616;39.754;2022-10-04T00:30:35;99455.31;;;26.46;39.90
74637;BME280;63141;54.616;39.754;2022-10-04T00:33:45;99453.56;;;26.45;39.62
74637;BME280;63141;54.616;39.754;2022-10-04T00:36:50;99462.56;;;26.44;39.75
74637;BME280;63141;54.616;39.754;2022-10-04T00:40:11;99457.13;;;26.46;39.74
74637;BME280;63141;54.616;39.754;2022-10-04T00:43:24;99463.41;;;26.45;39.79
74637;BME280;63141;54.616;39.754;2022-10-04T00:46:30;99468.75;;;26.45;39.89
74637;BME280;63141;54.616;39.754;2022-10-04T00:49:35;99474.09;;;26.45;39.93
74637;BME280;63141;54.616;39.754;2022-10-04T00:52:45;99474.09;;;26.45;40.02
74637;BME280;63141;54.616;39.754;2022-10-04T00:55:52;99473.25;;;26.44;39.93
74637;BME280;63141;54.616;39.754;2022-10-04T01:02:19;99466.09;;;26.45;39.86
74637;BME280;63141;54.616;39.754;2022-10-04T01:05:42;99467.81;;;26.46;40.00
74637;BME280;63141;54.616;39.754;2022-10-04T01:08:52;99459.78;;;26.46;40.02
74637;BME280;63141;54.616;39.754;2022-10-04T01:18:32;99456.38;;;26.44;39.94
74637;BME280;63141;54.616;39.754;2022-10-04T01:21:36;99448.38;;;26.44;40.18
74637;BME280;63141;54.616;39.754;2022-10-04T01:24:42;99451.88;;;26.44;40.07
74637;BME280;63141;54.616;39.754;2022-10-04T01:27:44;99451.03;;;26.44;40.40
74637;BME280;63141;54.616;39.754;2022-10-04T01:30:49;99456.38;;;26.44;40.05
74637;BME280;63141;54.616;39.754;2022-10-04T01:33:51;99460.84;;;26.43;40.07
74637;BME280;63141;54.616;39.754;2022-10-04T01:36:57;99456.38;;;26.44;39.96
74637;BME280;63141;54.616;39.754;2022-10-04T01:40:00;99457.22;;;26.44;40.29
74637;BME280;63141;54.616;39.754;2022-10-04T01:43:07;99464.38;;;26.44;40.22
74637;BME280;63141;54.616;39.754;2022-10-04T01:46:15;99468.97;;;26.42;40.19
74637;BME280;63141;54.616;39.754;2022-10-04T01:49:24;99469.72;;;26.44;40.42
74637;BME280;63141;54.616;39.754;2022-10-04T01:52:33;99481.16;;;26.46;40.19
74637;BME280;63141;54.616;39.754;2022-10-04T01:55:37;99474.09;;;26.45;40.35
74637;BME280;63141;54.616;39.754;2022-10-04T01:58:59;99477.75;;;26.44;40.33
74637;BME280;63141;54.616;39.754;2022-10-04T02:02:17;99473.25;;;26.44;40.17
74637;BME280;63141;54.616;39.754;2022-10-04T02:05:55;99467.91;;;26.44;40.00
74637;BME280;63141;54.616;39.754;2022-10-04T02:09:01;99467.06;;;26.44;40.20
74637;BME280;63141;54.616;39.754;2022-10-04T02:12:08;99472.41;;;26.44;40.51
74637;BME280;63141;54.616;39.754;2022-10-04T02:15:10;99463.63;;;26.42;40.03
74637;BME280;63141;54.616;39.754;2022-10-04T02:18:16;99470.66;;;26.43;40.39
74637;BME280;63141;54.616;39.754;2022-10-04T02:21:19;99474.19;;;26.43;40.15
74637;BME280;63141;54.616;39.754;2022-10-04T02:24:21;99472.41;;;26.44;40.28
74637;BME280;63141;54.616;39.754;2022-10-04T02:27:27;99478.59;;;26.44;40.21
74637;BME280;63141;54.616;39.754;2022-10-04T02:30:40;99480.50;;;26.42;40.09
74637;BME280;63141;54.616;39.754;2022-10-04T02:33:44;99485.75;;;26.44;40.09
74637;BME280;63141;54.616;39.754;2022-10-04T02:36:46;99484.88;;;26.43;40.32
74637;BME280;63141;54.616;39.754;2022-10-04T02:43:08;99488.41;;;26.44;40.12
74637;BME280;63141;54.616;39.754;2022-10-04T02:46:20;99492.88;;;26.43;40.20
74637;BME280;63141;54.616;39.754;2022-10-04T02:52:43;99496.53;;;26.42;40.44
74637;BME280;63141;54.616;39.754;2022-10-04T02:55:47;99505.38;;;26.43;40.42
74637;BME280;63141;54.616;39.754;2022-10-04T02:58:49;99501.00;;;26.42;40.32
74637;BME280;63141;54.616;39.754;2022-10-04T03:01:56;99499.19;;;26.42;40.35
74637;BME280;63141;54.616;39.754;2022-10-04T03:05:06;99506.34;;;26.42;40.39
74637;BME280;63141;54.616;39.754;2022-10-04T03:08:08;99495.69;;;26.42;40.39
74637;BME280;63141;54.616;39.754;2022-10-04T03:11:13;99494.81;;;26.41;39.97
74637;BME280;63141;54.616;39.754;2022-10-04T03:14:19;99491.28;;;26.41;40.07
74637;BME280;63141;54.616;39.754;2022-10-04T03:17:21;99501.97;;;26.41;40.24
74637;BME280;63141;54.616;39.754;2022-10-04T03:20:23;99507.28;;;26.41;40.23
74637;BME280;63141;54.616;39.754;2022-10-04T03:23:25;99504.63;;;26.41;40.35
74637;BME280;63141;54.616;39.754;2022-10-04T03:26:38;99499.19;;;26.42;40.16
74637;BME280;63141;54.616;39.754;2022-10-04T03:29:42;99508.28;;;26.40;40.48
74637;BME280;63141;54.616;39.754;2022-10-04T03:32:44;99509.97;;;26.41;40.36
74637;BME280;63141;54.616;39.754;2022-10-04T03:35:49;99501.09;;;26.40;40.09
74637;BME280;63141;54.616;39.754;2022-10-04T03:38:52;99502.19;;;26.38;40.10
74637;BME280;63141;54.616;39.754;2022-10-04T03:41:55;99512.94;;;26.36;39.76
74637;BME280;63141;54.616;39.754;2022-10-04T03:45:13;99511.25;;;26.35;39.78
74637;BME280;63141;54.616;39.754;2022-10-04T03:48:30;99515.75;;;26.35;39.71
74637;BME280;63141;54.616;39.754;2022-10-04T03:51:32;99510.50;;;26.33;39.50
74637;BME280;63141;54.616;39.754;2022-10-04T03:54:35;99511.47;;;26.32;39.72
74637;BME280;63141;54.616;39.754;2022-10-04T03:57:36;99517.66;;;26.32;39.72
74637;BME280;63141;54.616;39.754;2022-10-04T04:04:22;99524.06;;;26.30;39.45
74637;BME280;63141;54.616;39.754;2022-10-04T04:10:34;99522.34;;;26.29;39.65
74637;BME280;63141;54.616;39.754;2022-10-04T04:13:43;99529.81;;;26.24;39.33
74637;BME280;63141;54.616;39.754;2022-10-04T04:16:47;99532.41;;;26.11;38.32
74637;BME280;63141;54.616;39.754;2022-10-04T04:19:48;99529.25;;;25.91;37.94
74637;BME280;63141;54.616;39.754;2022-10-04T04:22:58;99524.75;;;25.50;37.44
74637;BME280;63141;54.616;39.754;2022-10-04T04:26:25;99530.31;;;25.19;37.60
74637;BME280;63141;54.616;39.754;2022-10-04T04:29:50;99531.25;;;25.32;38.17
74637;BME280;63141;54.616;39.754;2022-10-04T04:32:54;99537.31;;;25.48;37.48
74637;BME280;63141;54.616;39.754;2022-10-04T04:36:05;99530.19;;;25.63;37.65
74637;BME280;63141;54.616;39.754;2022-10-04T04:39:16;99532.13;;;25.74;37.56
74637;BME280;63141;54.616;39.754;2022-10-04T04:42:45;99533.34;;;25.83;37.10
74637;BME280;63141;54.616;39.754;2022-10-04T04:45:48;99535.66;;;25.89;37.54
74637;BME280;63141;54.616;39.754;2022-10-04T04:48:56;99530.97;;;25.92;37.48
74637;BME280;63141;54.616;39.754;2022-10-04T04:52:01;99530.78;;;25.96;37.33
74637;BME280;63141;54.616;39.754;2022-10-04T04:55:04;99540.28;;;26.00;37.44
74637;BME280;63141;54.616;39.754;2022-10-04T04:58:07;99542.84;;;26.01;37.62
74637;BME280;63141;54.616;39.754;2022-10-04T05:01:22;99528.44;;;26.04;37.61
74637;BME280;63141;54.616;39.754;2022-10-04T05:04:24;99535.50;;;26.05;37.97
74637;BME280;63141;54.616;39.754;2022-10-04T05:07:29;99533.59;;;26.07;37.98
74637;BME280;63141;54.616;39.754;2022-10-04T05:10:32;99539.66;;;26.09;38.03
74637;BME280;63141;54.616;39.754;2022-10-04T05:16:50;99543.84;;;26.13;37.80
74637;BME280;63141;54.616;39.754;2022-10-04T05:19:56;99537.34;;;26.17;38.27
74637;BME280;63141;54.616;39.754;2022-10-04T05:22:58;99538.13;;;26.19;38.14
74637;BME280;63141;54.616;39.754;2022-10-04T05:26:01;99531.72;;;26.22;37.91
74637;BME280;63141;54.616;39.754;2022-10-04T05:29:16;99536.00;;;26.24;38.29
74637;BME280;63141;54.616;39.754;2022-10-04T05:38:58;99562.69;;;26.24;37.97
74637;BME280;63141;54.616;39.754;2022-10-04T05:42:20;99559.16;;;26.24;38.49
74637;BME280;63141;54.616;39.754;2022-10-04T05:45:25;99560.00;;;26.24;38.49
74637;BME280;63141;54.616;39.754;2022-10-04T05:48:27;99553.81;;;26.24;38.46
74637;BME280;63141;54.616;39.754;2022-10-04T05:51:32;99560.88;;;26.25;38.72
74637;BME280;63141;54.616;39.754;2022-10-04T05:54:37;99554.59;;;26.26;38.36
74637;BME280;63141;54.616;39.754;2022-10-04T06:08:09;99570.59;;;26.26;38.45
74637;BME280;63141;54.616;39.754;2022-10-04T06:15:01;99567.84;;;26.27;38.61
74637;BME280;63141;54.616;39.754;2022-10-04T06:18:24;99578.50;;;26.27;38.78
74637;BME280;63141;54.616;39.754;2022-10-04T06:24:43;99566.88;;;26.28;38.87
74637;BME280;63141;54.616;39.754;2022-10-04T06:27:50;99569.53;;;26.28;38.84
74637;BME280;63141;54.616;39.754;2022-10-04T06:44:58;99567.63;;;26.30;39.09
74637;BME280;63141;54.616;39.754;2022-10-04T07:02:12;99575.41;;;26.33;39.32
74637;BME280;63141;54.616;39.754;2022-10-04T07:05:41;99578.09;;;26.33;39.01
74637;BME280;63141;54.616;39.754;2022-10-04T07:08:48;99576.25;;;26.34;39.15
74637;BME280;63141;54.616;39.754;2022-10-04T07:12:04;99569.97;;;26.35;39.07
74637;BME280;63141;54.616;39.754;2022-10-04T07:15:18;99573.50;;;26.36;38.92
74637;BME280;63141;54.616;39.754;2022-10-04T07:18:28;99578.84;;;26.36;39.41
74637;BME280;63141;54.616;39.754;2022-10-04T07:21:40;99581.50;;;26.36;39.15
74637;BME280;63141;54.616;39.754;2022-10-04T07:28:03;99593.03;;;26.36;39.14
74637;BME280;63141;54.616;39.754;2022-10-04T07:31:31;99579.69;;;26.36;39.38
74637;BME280;63141;54.616;39.754;2022-10-04T07:34:54;99585.91;;;26.37;39.20
74637;BME280;63141;54.616;39.754;2022-10-04T07:44:34;99577.91;;;26.37;39.32
74637;BME280;63141;54.616;39.754;2022-10-04T07:47:36;99578.75;;;26.37;39.50
74637;BME280;63141;54.616;39.754;2022-10-04T07:50:43;99581.41;;;26.37;39.54
74637;BME280;63141;54.616;39.754;2022-10-04T07:57:00;99588.47;;;26.38;39.43
74637;BME280;63141;54.616;39.754;2022-10-04T08:00:23;99588.47;;;26.38;39.34
74637;BME280;63141;54.616;39.754;2022-10-04T08:06:45;99591.03;;;26.40;39.61
74637;BME280;63141;54.616;39.754;2022-10-04T08:10:02;99583.03;;;26.40;39.68
74637;BME280;63141;54.616;39.754;2022-10-04T08:13:27;99588.38;;;26.40;39.44
74637;BME280;63141;54.616;39.754;2022-10-04T08:26:39;99584.72;;;26.41;39.43
74637;BME280;63141;54.616;39.754;2022-10-04T08:30:03;99583.88;;;26.40;39.81
74637;BME280;63141;54.616;39.754;2022-10-04T09:08:09;99592.66;;;26.42;39.43
74637;BME280;63141;54.616;39.754;2022-10-04T09:14:49;99596.06;;;26.44;39.66
74637;BME280;63141;54.616;39.754;2022-10-04T09:29:07;99591.56;;;26.45;39.44
74637;BME280;63141;54.616;39.754;2022-10-04T09:48:18;99595.84;;;26.47;39.56
74637;BME280;63141;54.616;39.754;2022-10-04T09:51:47;99596.69;;;26.48;39.84
74637;BME280;63141;54.616;39.754;2022-10-04T09:55:04;99599.38;;;26.48;39.52
74637;BME280;63141;54.616;39.754;2022-10-04T09:58:36;99598.44;;;26.49;39.92
74637;BME280;63141;54.616;39.754;2022-10-04T10:26:52;99605.59;;;26.48;39.78
74637;BME280;63141;54.616;39.754;2022-10-04T10:30:07;99613.59;;;26.48;39.74
74637;BME280;63141;54.616;39.754;2022-10-04T10:49:51;99599.28;;;26.49;39.84
74637;BME280;63141;54.616;39.754;2022-10-04T11:06:48;99610.81;;;26.50;39.60
74637;BME280;63141;54.616;39.754;2022-10-04T11:13:09;99618.28;;;26.45;39.25
74637;BME280;63141;54.616;39.754;2022-10-04T11:33:45;99608.44;;;26.32;36.98
74637;BME280;63141;54.616;39.754;2022-10-04T11:50:27;99617.59;;;26.28;36.46
74637;BME280;63141;54.616;39.754;2022-10-04T12:00:20;99619.50;;;26.26;35.92
74637;BME280;63141;54.616;39.754;2022-10-04T12:13:32;99632.28;;;26.21;35.93
74637;BME280;63141;54.616;39.754;2022-10-04T12:33:26;99644.22;;;26.16;36.00
74637;BME280;63141;54.616;39.754;2022-10-04T12:36:56;99640.69;;;26.15;36.22
74637;BME280;63141;54.616;39.754;2022-10-04T12:43:33;99645.25;;;26.13;36.61
74637;BME280;63141;54.616;39.754;2022-10-04T12:47:26;99638.22;;;26.12;36.25
74637;BME280;63141;54.616;39.754;2022-10-04T13:03:53;99626.88;;;26.08;36.13
74637;BME280;63141;54.616;39.754;2022-10-04T13:20:34;99634.13;;;26.06;36.58
74637;BME280;63141;54.616;39.754;2022-10-04T13:27:04;99631.59;;;26.05;36.52
74637;BME280;63141;54.616;39.754;2022-10-04T13:30:36;99630.81;;;26.03;36.40
74637;BME280;63141;54.616;39.754;2022-10-04T13:41:05;99648.66;;;26.02;36.43
74637;BME280;63141;54.616;39.754;2022-10-04T13:44:31;99651.41;;;26.01;36.23
74637;BME280;63141;54.616;39.754;2022-10-04T13:54:48;99656.94;;;25.98;36.29
74637;BME280;63141;54.616;39.754;2022-10-04T13:58:44;99651.63;;;25.98;36.72
74637;BME280;63141;54.616;39.754;2022-10-04T14:26:32;99651.16;;;25.91;36.38
74637;BME280;63141;54.616;39.754;2022-10-04T14:36:52;99668.94;;;25.90;36.61
74637;BME280;63141;54.616;39.754;2022-10-04T14:54:12;99688.25;;;25.06;37.65
74637;BME280;63141;54.616;39.754;2022-10-04T15:04:08;99693.94;;;24.22;39.11
74637;BME280;63141;54.616;39.754;2022-10-04T15:07:21;99693.91;;;24.07;39.58
74637;BME280;63141;54.616;39.754;2022-10-04T15:10:30;99691.69;;;23.99;39.74
74637;BME280;63141;54.616;39.754;2022-10-04T15:13:54;99688.44;;;23.94;40.14
74637;BME280;63141;54.616;39.754;2022-10-04T15:17:01;99689.84;;;23.83;40.37
74637;BME280;63141;54.616;39.754;2022-10-04T15:20:19;99694.56;;;23.78;41.26
74637;BME280;63141;54.616;39.754;2022-10-04T15:23:50;99700.03;;;23.75;41.74
74637;BME280;63141;54.616;39.754;2022-10-04T15:30:42;99699.44;;;23.53;43.05
74637;BME280;63141;54.616;39.754;2022-10-04T15:43:40;99681.91;;;24.15;41.22
74637;BME280;63141;54.616;39.754;2022-10-04T16:00:58;99689.25;;;24.74;39.80
74637;BME280;63141;54.616;39.754;2022-10-04T16:23:31;99718.22;;;25.26;38.83
74637;BME280;63141;54.616;39.754;2022-10-04T16:29:42;99715.75;;;25.37;39.68
74637;BME280;63141;54.616;39.754;2022-10-04T16:36:19;99723.97;;;25.48;39.66
74637;BME280;63141;54.616;39.754;2022-10-04T16:43:20;99718.16;;;25.56;40.08
74637;BME280;63141;54.616;39.754;2022-10-04T16:46:30;99709.13;;;25.59;39.65
74637;BME280;63141;54.616;39.754;2022-10-04T16:49:47;99715.97;;;25.63;39.84
74637;BME280;63141;54.616;39.754;2022-10-04T16:56:17;99723.81;;;25.66;39.74
74637;BME280;63141;54.616;39.754;2022-10-04T17:06:08;99719.25;;;25.68;39.98
74637;BME280;63141;54.616;39.754;2022-10-04T17:12:50;99712.84;;;25.70;40.21
74637;BME280;63141;54.616;39.754;2022-10-04T17:16:08;99720.84;;;25.70;40.22
74637;BME280;63141;54.616;39.754;2022-10-04T17:19:19;99714.56;;;25.71;40.29
74637;BME280;63141;54.616;39.754;2022-10-04T17:22:34;99735.69;;;25.75;40.13
74637;BME280;63141;54.616;39.754;2022-10-04T17:33:11;99746.19;;;25.78;39.96
74637;BME280;63141;54.616;39.754;2022-10-04T17:36:38;99742.56;;;25.79;40.05
74637;BME280;63141;54.616;39.754;2022-10-04T17:43:33;99731.53;;;25.85;40.68
74637;BME280;63141;54.616;39.754;2022-10-04T17:50:15;99729.84;;;25.98;40.76
74637;BME280;63141;54.616;39.754;2022-10-04T17:53:41;99717.81;;;26.05;41.12
74637;BME280;63141;54.616;39.754;2022-10-04T18:00:13;99724.28;;;26.16;41.93
74637;BME280;63141;54.616;39.754;2022-10-04T18:03:25;99724.88;;;26.21;42.05
74637;BME280;63141;54.616;39.754;2022-10-04T18:06:38;99724.75;;;26.22;43.05
74637;BME280;63141;54.616;39.754;2022-10-04T18:09:49;99723.69;;;26.25;43.40
74637;BME280;63141;54.616;39.754;2022-10-04T18:13:29;99719.25;;;26.25;43.89
74637;BME280;63141;54.616;39.754;2022-10-04T18:22:55;99718.19;;;26.28;44.18
74637;BME280;63141;54.616;39.754;2022-10-04T18:25:59;99724.47;;;26.27;43.56
74637;BME280;63141;54.616;39.754;2022-10-04T18:29:01;99708.34;;;26.28;43.72
74637;BME280;63141;54.616;39.754;2022-10-04T18:32:32;99722.66;;;26.27;43.07
74637;BME280;63141;54.616;39.754;2022-10-04T18:35:34;99727.53;;;26.21;42.42
74637;BME280;63141;54.616;39.754;2022-10-04T18:38:36;99728.56;;;26.18;41.91
74637;BME280;63141;54.616;39.754;2022-10-04T18:41:52;99727.91;;;26.15;42.26
74637;BME280;63141;54.616;39.754;2022-10-04T18:45:18;99730.69;;;26.13;42.02
74637;BME280;63141;54.616;39.754;2022-10-04T18:48:35;99723.63;;;26.12;41.96
74637;BME280;63141;54.616;39.754;2022-10-04T18:51:50;99728.00;;;26.13;41.58
74637;BME280;63141;54.616;39.754;2022-10-04T19:05:37;99700.56;;;26.11;41.78
74637;BME280;63141;54.616;39.754;2022-10-04T19:09:30;99703.22;;;26.11;41.92
74637;BME280;63141;54.616;39.754;2022-10-04T19:12:57;99698.09;;;26.08;41.88
74637;BME280;63141;54.616;39.754;2022-10-04T19:16:39;99702.47;;;26.09;41.63
74637;BME280;63141;54.616;39.754;2022-10-04T19:19:58;99706.84;;;26.10;41.84
74637;BME280;63141;54.616;39.754;2022-10-04T19:26:48;99698.09;;;26.08;41.74
74637;BME280;63141;54.616;39.754;2022-10-04T19:30:02;99688.38;;;26.07;41.76
74637;BME280;63141;54.616;39.754;2022-10-04T19:36:54;99687.41;;;26.08;41.89
74637;BME280;63141;54.616;39.754;2022-10-04T19:43:56;99684.75;;;26.08;41.54
74637;BME280;63141;54.616;39.754;2022-10-04T19:50:41;99693.50;;;26.10;41.47
74637;BME280;63141;54.616;39.754;2022-10-04T19:53:49;99695.41;;;26.08;41.58
74637;BME280;63141;54.616;39.754;2022-10-04T19:57:04;99684.75;;;26.08;41.49
74637;BME280;63141;54.616;39.754;2022-10-04T20:00:13;99688.25;;;26.08;41.93
74637;BME280;63141;54.616;39.754;2022-10-04T20:03:26;99690.09;;;26.08;41.57
74637;BME280;63141;54.616;39.754;2022-10-04T20:06:34;99690.94;;;26.08;41.46
74637;BME280;63141;54.616;39.754;2022-10-04T20:19:48;99698.84;;;26.10;41.49
74637;BME280;63141;54.616;39.754;2022-10-04T20:28:54;99696.28;;;26.08;42.06
74637;BME280;63141;54.616;39.754;2022-10-04T20:31:57;99696.19;;;26.10;41.78
74637;BME280;63141;54.616;39.754;2022-10-04T20:35:00;99691.78;;;26.09;41.63
74637;BME280;63141;54.616;39.754;2022-10-04T20:44:47;99701.53;;;26.10;41.89
74637;BME280;63141;54.616;39.754;2022-10-04T20:47:55;99700.56;;;26.11;41.43
74637;BME280;63141;54.616;39.754;2022-10-04T20:51:07;99695.22;;;26.11;41.67
74637;BME280;63141;54.616;39.754;2022-10-04T20:54:18;99691.69;;;26.10;41.84
74637;BME280;63141;54.616;39.754;2022-10-04T20:57:22;99692.66;;;26.09;41.74
74637;BME280;63141;54.616;39.754;2022-10-04T21:00:29;99687.22;;;26.11;41.78
74637;BME280;63141;54.616;39.754;2022-10-04T21:03:34;99682.84;;;26.10;41.92
74637;BME280;63141;54.616;39.754;2022-10-04T21:07:05;99692.53;;;26.11;41.97
74637;BME280;63141;54.616;39.754;2022-10-04T21:10:17;99686.34;;;26.10;41.61
74637;BME280;63141;54.616;39.754;2022-10-04T21:13:57;99690.75;;;26.11;41.93
74637;BME280;63141;54.616;39.754;2022-10-04T21:21:03;99702.28;;;26.12;42.00
74637;BME280;63141;54.616;39.754;2022-10-04T21:30:29;99702.28;;;26.12;41.87
74637;BME280;63141;54.616;39.754;2022-10-04T21:33:31;99696.94;;;26.12;41.66
74637;BME280;63141;54.616;39.754;2022-10-04T21:36:32;99705.88;;;26.11;41.52
74637;BME280;63141;54.616;39.754;2022-10-04T21:39:33;99702.28;;;26.12;42.08
74637;BME280;63141;54.616;39.754;2022-10-04T21:42:35;99701.31;;;26.13;42.09
74637;BME280;63141;54.616;39.754;2022-10-04T21:45:36;99699.63;;;26.12;41.71
74637;BME280;63141;54.616;39.754;2022-10-04T21:48:37;99700.38;;;26.14;41.96
74637;BME280;63141;54.616;39.754;2022-10-04T21:51:39;99702.06;;;26.15;41.60
74637;BME280;63141;54.616;39.754;2022-10-04T21:54:40;99698.66;;;26.13;41.73
74637;BME280;63141;54.616;39.754;2022-10-04T21:57:42;99710.09;;;26.15;41.73
74637;BME280;63141;54.616;39.754;2022-10-04T22:00:43;99704.84;;;26.13;41.76
74637;BME280;63141;54.616;39.754;2022-10-04T22:03:50;99702.16;;;26.13;41.76
74637;BME280;63141;54.616;39.754;2022-10-04T22:06:52;99711.06;;;26.14;41.83
74637;BME280;63141;54.616;39.754;2022-10-04T22:09:53;99712.75;;;26.15;42.12
74637;BME280;63141;54.616;39.754;2022-10-04T22:12:55;99698.47;;;26.16;41.98
74637;BME280;63141;54.616;39.754;2022-10-04T22:15:57;99700.25;;;26.16;41.71
74637;BME280;63141;54.616;39.754;2022-10-04T22:18:58;99698.47;;;26.16;41.68
74637;BME280;63141;54.616;39.754;2022-10-04T22:21:59;99697.59;;;26.16;41.92
74637;BME280;63141;54.616;39.754;2022-10-04T22:25:01;99701.13;;;26.16;41.71
74637;BME280;63141;54.616;39.754;2022-10-04T22:28:22;99694.84;;;26.17;41.94
74637;BME280;63141;54.616;39.754;2022-10-04T22:31:26;99698.47;;;26.16;41.68
74637;BME280;63141;54.616;39.754;2022-10-04T22:34:29;99696.75;;;26.15;42.03
74637;BME280;63141;54.616;39.754;2022-10-04T22:37:32;99703.81;;;26.16;41.83
74637;BME280;63141;54.616;39.754;2022-10-04T22:40:33;99709.16;;;26.16;41.81
74637;BME280;63141;54.616;39.754;2022-10-04T22:43:35;99698.47;;;26.16;41.62
74637;BME280;63141;54.616;39.754;2022-10-04T22:46:38;99705.50;;;26.17;41.61
74637;BME280;63141;54.616;39.754;2022-10-04T22:49:43;99704.53;;;26.18;41.87
74637;BME280;63141;54.616;39.754;2022-10-04T22:52:45;99701.03;;;26.18;41.79
74637;BME280;63141;54.616;39.754;2022-10-04T22:55:48;99701.13;;;26.16;41.94
74637;BME280;63141;54.616;39.754;2022-10-04T22:58:49;99703.69;;;26.18;41.62
74637;BME280;63141;54.616;39.754;2022-10-04T23:01:51;99712.56;;;26.18;41.74
74637;BME280;63141;54.616;39.754;2022-10-04T23:05:08;99703.59;;;26.19;41.99
74637;BME280;63141;54.616;39.754;2022-10-04T23:08:10;99712.56;;;26.18;41.77
74637;BME280;63141;54.616;39.754;2022-10-04T23:11:11;99711.59;;;26.19;41.87
74637;BME280;63141;54.616;39.754;2022-10-04T23:14:13;99706.34;;;26.18;41.59
74637;BME280;63141;54.616;39.754;2022-10-04T23:17:27;99706.28;;;26.19;41.99
74637;BME280;63141;54.616;39.754;2022-10-04T23:20:29;99701.88;;;26.18;41.87
74637;BME280;63141;54.616;39.754;2022-10-04T23:23:31;99706.34;;;26.18;42.17
74637;BME280;63141;54.616;39.754;2022-10-04T23:26:37;99705.41;;;26.19;42.02
74637;BME280;63141;54.616;39.754;2022-10-04T23:29:39;99697.41;;;26.19;41.71
74637;BME280;63141;54.616;39.754;2022-10-04T23:32:42;99701.03;;;26.18;41.89
74637;BME280;63141;54.616;39.754;2022-10-04T23:35:45;99697.50;;;26.17;41.84
74637;BME280;63141;54.616;39.754;2022-10-04T23:38:59;99696.53;;;26.18;41.75
74637;BME280;63141;54.616;39.754;2022-10-04T23:42:11;99693.00;;;26.18;42.15
74637;BME280;63141;54.616;39.754;2022-10-04T23:45:18;99692.06;;;26.19;41.69
74637;BME280;63141;54.616;39.754;2022-10-04T23:48:24;99696.53;;;26.18;42.07
74637;BME280;63141;54.616;39.754;2022-10-04T23:51:26;99684.16;;;26.17;41.87
74637;BME280;63141;54.616;39.754;2022-10-04T23:54:28;99693.13;;;26.16;42.00
74637;BME280;63141;54.616;39.754;2022-10-04T23:57:30;99688.72;;;26.15;41.96
